This is the latest recevied weather packets stored in our database for station/object F4AMY-13. If no packets are shown the sender has not sent any weather packets the latest 10 day(s).
| Time | Temp. | Humidity | Pressure | Rain* | Wind** | Luminosity | Snow |
|---|---|---|---|---|---|---|---|
| 1777798372 | 17.78° C | 58% | 1017.8 hPa | 0 mm | 42.47 m/s, ° | 95 W/m² | - |
| 1777798071 | 17.78° C | 59% | 1017.8 hPa | 0 mm | 38.89 m/s, ° | 87 W/m² | - |
| 1777797771 | 17.78° C | 56% | 1017.4 hPa | 0 mm | 36.21 m/s, ° | 81 W/m² | - |
| 1777797471 | 17.78° C | 57% | 1017.7 hPa | 0 mm | 33.08 m/s, ° | 74 W/m² | - |
| 1777797171 | 17.22° C | 65% | 1017.6 hPa | 0 mm | 33.08 m/s, ° | 74 W/m² | - |
| 1777796871 | 17.22° C | 64% | 1017.5 hPa | 0 mm | 33.53 m/s, ° | 75 W/m² | - |
| 1777796571 | 17.22° C | 63% | 1017.6 hPa | 0 mm | 31.74 m/s, ° | 71 W/m² | - |
| 1777796271 | 17.22° C | 62% | 1017.7 hPa | 0 mm | 29.95 m/s, ° | 67 W/m² | - |
| 1777795971 | 17.22° C | 63% | 1017.6 hPa | 0 mm | 34.87 m/s, ° | 78 W/m² | - |
| 1777795671 | 17.22° C | 64% | 1017.6 hPa | 0 mm | 29.5 m/s, ° | 66 W/m² | - |
| 1777795371 | 16.67° C | 66% | 1017.4 hPa | 0 mm | 26.82 m/s, ° | 60 W/m² | - |
| 1777795071 | 16.67° C | 66% | 1017.6 hPa | 0 mm | 25.93 m/s, ° | 58 W/m² | - |
| 1777794771 | 16.67° C | 67% | 1017.6 hPa | 0 mm | 28.61 m/s, ° | 64 W/m² | - |
| 1777794471 | 16.67° C | 70% | 1017.6 hPa | 0 mm | 27.27 m/s, ° | 61 W/m² | - |
| 1777794171 | 16.67° C | 68% | 1017.5 hPa | 0 mm | 23.25 m/s, ° | 52 W/m² | - |
| 1777793871 | 16.11° C | 69% | 1017.6 hPa | 0 mm | 23.69 m/s, ° | 53 W/m² | - |
| 1777793571 | 16.11° C | 69% | 1017.5 hPa | 0 mm | 23.69 m/s, ° | 53 W/m² | - |
| 1777793271 | 15.56° C | 70% | 1017.6 hPa | 0 mm | 23.25 m/s, ° | 52 W/m² | - |
| 1777792971 | 15.56° C | 72% | 1017.7 hPa | 0 mm | 20.12 m/s, ° | 45 W/m² | - |
| 1777792670 | 15.56° C | 72% | 1017.6 hPa | 0 mm | 21.01 m/s, ° | 47 W/m² | - |
| 1777792370 | 15° C | 72% | 1017.5 hPa | 0 mm | 19.22 m/s, ° | 43 W/m² | - |
| 1777792070 | 15° C | 73% | 1017.5 hPa | 0 mm | 21.01 m/s, ° | 47 W/m² | - |
| 1777791770 | 15° C | 74% | 1017.5 hPa | 0 mm | 20.12 m/s, ° | 45 W/m² | - |
| 1777791470 | 14.44° C | 75% | 1017.3 hPa | 0 mm | 16.99 m/s, ° | 38 W/m² | - |
| 1777791170 | 14.44° C | 74% | 1017.2 hPa | 0 mm | 14.75 m/s, ° | 33 W/m² | - |
* Rain latest hour (hover to see other rain measurements)
** Current wind speed in m/s (hover to see current wind gust speed)